Bodan 5 — DINQ2 — position and weather

sailwx.info

Track history (hours):
 
Tides and Currents Weather Stations Pressure Air Temp Water Temp Dewpoint Dewpoint Depression Visibility Wind Speed Wind Dir Waves Ship Positions

Bodan 5

Last reported at 2018-Jun-09 12:43 UTC. Time now 2018-Jun-18 06:02 UTC.
Position N 38°49' E 024°22'.
Warning: this ship's position is 8 days out of date.

Length 14 m; draft 2.4 m.

Type: Sailing vessel. MMSI: 211249120.

Date/timePositionNaut miles runAvg speedWind from/ knotsBaromVisibWave heightAir tempDewpointWater temp
2018-Jun-09 12:43N 38°49' E 024°22'  
2018-Jun-05 08:01N 39°35' E 024°23'0 7.8
2018-Jun-05 07:58N 39°36' E 024°23'4 7.8
2018-Jun-05 07:31N 39°38' E 024°27'5 7.4
2018-Jun-05 06:50N 39°41' E 024°33'2 6.8
2018-Jun-05 06:29N 39°42' E 024°35'3 6.6
2018-Jun-05 06:00N 39°44' E 024°38'4 6.4
2018-Jun-05 05:28N 39°45' E 024°43'3 6.6
2018-Jun-05 04:59N 39°47' E 024°46'3 6.3
2018-Jun-05 04:30N 39°48' E 024°49'16 1.0
2018-Jun-04 11:52N 40°02' E 025°00'4 5.9
2018-Jun-04 11:14N 40°05' E 024°57'5 5.7
2018-Jun-04 10:26N 40°09' E 024°55'3 6.2
2018-Jun-04 09:59N 40°12' E 024°55'4 4.1
2018-Jun-04 09:06N 40°15' E 024°54'1 4.5
2018-Jun-04 08:53N 40°16' E 024°54'1 3.8
2018-Jun-04 08:30N 40°18' E 024°54'4 4.9
2018-Jun-04 07:39N 40°22' E 024°53'3 6.2
2018-Jun-04 07:06N 40°25' E 024°52'1 6.2
2018-Jun-04 06:52N 40°27' E 024°51'11 6.2
2018-Jun-04 05:04N 40°38' E 024°50'0 5.7
2018-Jun-04 05:00N 40°38' E 024°50'3 5.6
2018-Jun-04 04:30N 40°41' E 024°49'3 5.9
2018-Jun-04 04:00N 40°44' E 024°48'3 6.4
2018-Jun-04 03:30N 40°46' E 024°45'2 3.3
2018-Jun-04 02:51N 40°47' E 024°42'0 0.0
2018-Jun-04 02:27N 40°47' E 024°42'0 0.0
2018-Jun-04 01:57N 40°47' E 024°42'0 0.0
2018-Jun-04 01:27N 40°47' E 024°42'0 0.0
2018-Jun-04 00:57N 40°47' E 024°42'0 0.0
2018-Jun-04 00:27N 40°47' E 024°42'0 0.0
2018-Jun-04 00:00N 40°47' E 024°42'0 0.0
2018-Jun-03 23:27N 40°47' E 024°42'0 0.0
2018-Jun-03 22:51N 40°47' E 024°42'0 0.0
2018-Jun-03 22:30N 40°47' E 024°42'0 0.0
2018-Jun-03 21:51N 40°47' E 024°42'0 0.0
2018-Jun-03 21:27N 40°47' E 024°42'0 0.0
2018-Jun-03 20:51N 40°47' E 024°42'0 0.0
2018-Jun-03 20:27N 40°47' E 024°42'0 0.0
2018-Jun-03 19:51N 40°47' E 024°42'0 0.0
2018-Jun-03 19:27N 40°47' E 024°42'0 0.0
2018-Jun-03 19:00N 40°47' E 024°42'0 0.0
2018-Jun-03 18:27N 40°47' E 024°42'0 0.0
2018-Jun-03 17:57N 40°47' E 024°42'0 0.0
2018-Jun-03 17:27N 40°47' E 024°42'0 0.0
2018-Jun-03 16:57N 40°47' E 024°42'0 0.0
2018-Jun-03 16:28N 40°47' E 024°42'0 0.0
2018-Jun-03 15:58N 40°47' E 024°42'0 0.0
2018-Jun-03 15:28N 40°47' E 024°42'0 0.0
2018-Jun-03 14:58N 40°47' E 024°42'0 0.0
2018-Jun-03 14:28N 40°47' E 024°42'0 0.0
2018-Jun-03 14:00N 40°47' E 024°42'1 1.5
2018-Jun-03 13:30N 40°47' E 024°42'3 5.6
2018-Jun-03 13:01N 40°49' E 024°39'3 5.6
2018-Jun-03 12:30N 40°50' E 024°36'2 3.6
2018-Jun-03 12:01N 40°51' E 024°34'1 1.8
2018-Jun-03 11:30N 40°52' E 024°33'2 4.1
2018-Jun-03 11:00N 40°53' E 024°30'2 4.5
2018-Jun-03 10:30N 40°54' E 024°28'2 5.0
2018-Jun-03 10:00N 40°55' E 024°25'1 1.9
2018-Jun-03 09:30N 40°56' E 024°24'0 0.0
2018-Jun-03 08:51N 40°56' E 024°24'0 0.0
2018-Jun-03 08:31N 40°56' E 024°24'0 0.0
2018-Jun-03 07:59N 40°56' E 024°24'0 0.0
2018-Jun-03 07:31N 40°56' E 024°24'0 0.0
2018-Jun-03 07:00N 40°56' E 024°24'0 0.0
2018-Jun-03 06:30N 40°56' E 024°24'0 0.0
2018-Jun-03 06:01N 40°56' E 024°24'0 0.0
2018-Jun-03 05:17N 40°56' E 024°24'0 0.0
2018-Jun-03 04:53N 40°56' E 024°24'0 0.0
2018-Jun-03 04:28N 40°56' E 024°24'0 0.0
2018-Jun-03 03:58N 40°56' E 024°24'0 0.0
2018-Jun-03 03:30N 40°56' E 024°24'0 0.0
2018-Jun-03 02:53N 40°56' E 024°24'0 0.0
2018-Jun-03 02:17N 40°56' E 024°24'0 0.0
2018-Jun-03 01:59N 40°56' E 024°24'0 0.0
2018-Jun-03 01:29N 40°56' E 024°24'0 0.0
2018-Jun-03 00:59N 40°56' E 024°24'0 0.0
2018-Jun-03 00:27N 40°56' E 024°24'0 0.0
2018-Jun-02 23:57N 40°56' E 024°24'0 0.0
2018-Jun-02 23:27N 40°56' E 024°24'0 0.0
2018-Jun-02 22:58N 40°56' E 024°24'0 0.0
2018-Jun-02 22:28N 40°56' E 024°24'0 0.0
2018-Jun-02 20:58N 40°56' E 024°24'0 0.0
2018-Jun-02 20:22N 40°56' E 024°24'0 0.0
2018-Jun-02 19:58N 40°56' E 024°24'0 0.0
2018-Jun-02 19:28N 40°56' E 024°24'0 0.0
2018-Jun-02 17:29N 40°56' E 024°24'0 0.0
2018-Jun-02 16:58N 40°56' E 024°24'0 0.0
2018-Jun-02 16:22N 40°56' E 024°24'0 0.0
2018-Jun-02 15:46N 40°56' E 024°24'0 0.0
2018-Jun-02 14:38N 40°56' E 024°24'0 0.0
2018-Jun-02 13:39N 40°56' E 024°24'0 0.0
2018-Jun-02 13:27N 40°56' E 024°24'0 0.0
2018-Jun-02 10:59N 40°56' E 024°24'0 0.0
2018-Jun-01 12:03N 40°56' E 024°24'0 0.0
2018-Jun-01 11:58N 40°56' E 024°24'0 0.0
2018-Jun-01 11:28N 40°56' E 024°24'0 0.5
2018-Jun-01 11:00N 40°56' E 024°24'2 3.8
2018-Jun-01 10:30N 40°55' E 024°26'3 6.0
2018-Jun-01 10:00N 40°53' E 024°30'3 6.8
2018-Jun-01 09:30N 40°51' E 024°33'3 5.8
2018-Jun-01 09:00N 40°50' E 024°37'2 4.9
2018-Jun-01 08:30N 40°48' E 024°39'3 0.2
2018-May-31 17:16N 40°47' E 024°42'0 0.0
2018-May-31 17:00N 40°47' E 024°42'0 0.0
2018-May-31 16:30N 40°47' E 024°42'0 0.0
2018-May-31 16:00N 40°47' E 024°42'0 0.0
2018-May-31 15:30N 40°47' E 024°42'0 0.0
2018-May-31 15:00N 40°47' E 024°42'0 0.0
2018-May-31 14:29N 40°47' E 024°42'0 0.0
2018-May-31 14:00N 40°47' E 024°42'0 0.0
2018-May-31 13:30N 40°47' E 024°42'0 0.0
2018-May-31 11:13N 40°47' E 024°42'0 0.0
2018-May-31 11:00N 40°47' E 024°42'0 0.0
2018-May-31 08:22N 40°47' E 024°42'0 0.0
2018-May-31 08:00N 40°47' E 024°42'0 0.0
2018-May-31 07:30N 40°47' E 024°42'0 0.0
2018-May-31 07:00N 40°47' E 024°42'0 0.0
2018-May-31 06:30N 40°47' E 024°42'0 0.0
2018-May-31 06:00N 40°47' E 024°42'0 0.0
2018-May-30 17:04N 40°47' E 024°42'0 0.0
2018-May-30 17:01N 40°47' E 024°42'0 0.0
2018-May-30 16:30N 40°47' E 024°42'0 0.0
2018-May-30 16:00N 40°47' E 024°42'1 2.5
2018-May-30 15:30N 40°47' E 024°44'3 6.8
2018-May-30 15:00N 40°44' E 024°47'4 6.9
2018-May-30 14:30N 40°41' E 024°48'  
Track history (hours):
 
Tides and Currents Weather Stations Pressure Air Temp Water Temp Dewpoint Dewpoint Depression Visibility Wind Speed Wind Dir Waves Ship Positions

Bodan 5

Last reported at 2018-Jun-09 12:43 UTC. Time now 2018-Jun-18 06:02 UTC.
Position N 38°49' E 024°22'.
Warning: this ship's position is 8 days out of date.

Length 14 m; draft 2.4 m.

Type: Sailing vessel. MMSI: 211249120.

Date/timePositionNaut miles runAvg speedWind from/ knotsBaromVisibWave heightAir tempDewpointWater temp
2018-Jun-09 12:43N 38°49' E 024°22'  
2018-Jun-05 08:01N 39°35' E 024°23'0 7.8
2018-Jun-05 07:58N 39°36' E 024°23'4 7.8
2018-Jun-05 07:31N 39°38' E 024°27'5 7.4
2018-Jun-05 06:50N 39°41' E 024°33'2 6.8
2018-Jun-05 06:29N 39°42' E 024°35'3 6.6
2018-Jun-05 06:00N 39°44' E 024°38'4 6.4
2018-Jun-05 05:28N 39°45' E 024°43'3 6.6
2018-Jun-05 04:59N 39°47' E 024°46'3 6.3
2018-Jun-05 04:30N 39°48' E 024°49'16 1.0
2018-Jun-04 11:52N 40°02' E 025°00'4 5.9
2018-Jun-04 11:14N 40°05' E 024°57'5 5.7
2018-Jun-04 10:26N 40°09' E 024°55'3 6.2
2018-Jun-04 09:59N 40°12' E 024°55'4 4.1
2018-Jun-04 09:06N 40°15' E 024°54'1 4.5
2018-Jun-04 08:53N 40°16' E 024°54'1 3.8
2018-Jun-04 08:30N 40°18' E 024°54'4 4.9
2018-Jun-04 07:39N 40°22' E 024°53'3 6.2
2018-Jun-04 07:06N 40°25' E 024°52'1 6.2
2018-Jun-04 06:52N 40°27' E 024°51'11 6.2
2018-Jun-04 05:04N 40°38' E 024°50'0 5.7
2018-Jun-04 05:00N 40°38' E 024°50'3 5.6
2018-Jun-04 04:30N 40°41' E 024°49'3 5.9
2018-Jun-04 04:00N 40°44' E 024°48'3 6.4
2018-Jun-04 03:30N 40°46' E 024°45'2 3.3
2018-Jun-04 02:51N 40°47' E 024°42'0 0.0
2018-Jun-04 02:27N 40°47' E 024°42'0 0.0
2018-Jun-04 01:57N 40°47' E 024°42'0 0.0
2018-Jun-04 01:27N 40°47' E 024°42'0 0.0
2018-Jun-04 00:57N 40°47' E 024°42'0 0.0
2018-Jun-04 00:27N 40°47' E 024°42'0 0.0
2018-Jun-04 00:00N 40°47' E 024°42'0 0.0
2018-Jun-03 23:27N 40°47' E 024°42'0 0.0
2018-Jun-03 22:51N 40°47' E 024°42'0 0.0
2018-Jun-03 22:30N 40°47' E 024°42'0 0.0
2018-Jun-03 21:51N 40°47' E 024°42'0 0.0
2018-Jun-03 21:27N 40°47' E 024°42'0 0.0
2018-Jun-03 20:51N 40°47' E 024°42'0 0.0
2018-Jun-03 20:27N 40°47' E 024°42'0 0.0
2018-Jun-03 19:51N 40°47' E 024°42'0 0.0
2018-Jun-03 19:27N 40°47' E 024°42'0 0.0
2018-Jun-03 19:00N 40°47' E 024°42'0 0.0
2018-Jun-03 18:27N 40°47' E 024°42'0 0.0
2018-Jun-03 17:57N 40°47' E 024°42'0 0.0
2018-Jun-03 17:27N 40°47' E 024°42'0 0.0
2018-Jun-03 16:57N 40°47' E 024°42'0 0.0
2018-Jun-03 16:28N 40°47' E 024°42'0 0.0
2018-Jun-03 15:58N 40°47' E 024°42'0 0.0
2018-Jun-03 15:28N 40°47' E 024°42'0 0.0
2018-Jun-03 14:58N 40°47' E 024°42'0 0.0
2018-Jun-03 14:28N 40°47' E 024°42'0 0.0
2018-Jun-03 14:00N 40°47' E 024°42'1 1.5
2018-Jun-03 13:30N 40°47' E 024°42'3 5.6
2018-Jun-03 13:01N 40°49' E 024°39'3 5.6
2018-Jun-03 12:30N 40°50' E 024°36'2 3.6
2018-Jun-03 12:01N 40°51' E 024°34'1 1.8
2018-Jun-03 11:30N 40°52' E 024°33'2 4.1
2018-Jun-03 11:00N 40°53' E 024°30'2 4.5
2018-Jun-03 10:30N 40°54' E 024°28'2 5.0
2018-Jun-03 10:00N 40°55' E 024°25'1 1.9
2018-Jun-03 09:30N 40°56' E 024°24'0 0.0
2018-Jun-03 08:51N 40°56' E 024°24'0 0.0
2018-Jun-03 08:31N 40°56' E 024°24'0 0.0
2018-Jun-03 07:59N 40°56' E 024°24'0 0.0
2018-Jun-03 07:31N 40°56' E 024°24'0 0.0
2018-Jun-03 07:00N 40°56' E 024°24'0 0.0
2018-Jun-03 06:30N 40°56' E 024°24'0 0.0
2018-Jun-03 06:01N 40°56' E 024°24'0 0.0
2018-Jun-03 05:17N 40°56' E 024°24'0 0.0
2018-Jun-03 04:53N 40°56' E 024°24'0 0.0
2018-Jun-03 04:28N 40°56' E 024°24'0 0.0
2018-Jun-03 03:58N 40°56' E 024°24'0 0.0
2018-Jun-03 03:30N 40°56' E 024°24'0 0.0
2018-Jun-03 02:53N 40°56' E 024°24'0 0.0
2018-Jun-03 02:17N 40°56' E 024°24'0 0.0
2018-Jun-03 01:59N 40°56' E 024°24'0 0.0
2018-Jun-03 01:29N 40°56' E 024°24'0 0.0
2018-Jun-03 00:59N 40°56' E 024°24'0 0.0
2018-Jun-03 00:27N 40°56' E 024°24'0 0.0
2018-Jun-02 23:57N 40°56' E 024°24'0 0.0
2018-Jun-02 23:27N 40°56' E 024°24'0 0.0
2018-Jun-02 22:58N 40°56' E 024°24'0 0.0
2018-Jun-02 22:28N 40°56' E 024°24'0 0.0
2018-Jun-02 20:58N 40°56' E 024°24'0 0.0
2018-Jun-02 20:22N 40°56' E 024°24'0 0.0
2018-Jun-02 19:58N 40°56' E 024°24'0 0.0
2018-Jun-02 19:28N 40°56' E 024°24'0 0.0
2018-Jun-02 17:29N 40°56' E 024°24'0 0.0
2018-Jun-02 16:58N 40°56' E 024°24'0 0.0
2018-Jun-02 16:22N 40°56' E 024°24'0 0.0
2018-Jun-02 15:46N 40°56' E 024°24'0 0.0
2018-Jun-02 14:38N 40°56' E 024°24'0 0.0
2018-Jun-02 13:39N 40°56' E 024°24'0 0.0
2018-Jun-02 13:27N 40°56' E 024°24'0 0.0
2018-Jun-02 10:59N 40°56' E 024°24'0 0.0
2018-Jun-01 12:03N 40°56' E 024°24'0 0.0
2018-Jun-01 11:58N 40°56' E 024°24'0 0.0
2018-Jun-01 11:28N 40°56' E 024°24'0 0.5
2018-Jun-01 11:00N 40°56' E 024°24'2 3.8
2018-Jun-01 10:30N 40°55' E 024°26'3 6.0
2018-Jun-01 10:00N 40°53' E 024°30'3 6.8
2018-Jun-01 09:30N 40°51' E 024°33'3 5.8
2018-Jun-01 09:00N 40°50' E 024°37'2 4.9
2018-Jun-01 08:30N 40°48' E 024°39'3 0.2
2018-May-31 17:16N 40°47' E 024°42'0 0.0
2018-May-31 17:00N 40°47' E 024°42'0 0.0
2018-May-31 16:30N 40°47' E 024°42'0 0.0
2018-May-31 16:00N 40°47' E 024°42'0 0.0
2018-May-31 15:30N 40°47' E 024°42'0 0.0
2018-May-31 15:00N 40°47' E 024°42'0 0.0
2018-May-31 14:29N 40°47' E 024°42'0 0.0
2018-May-31 14:00N 40°47' E 024°42'0 0.0
2018-May-31 13:30N 40°47' E 024°42'0 0.0
2018-May-31 11:13N 40°47' E 024°42'0 0.0
2018-May-31 11:00N 40°47' E 024°42'0 0.0
2018-May-31 08:22N 40°47' E 024°42'0 0.0
2018-May-31 08:00N 40°47' E 024°42'0 0.0
2018-May-31 07:30N 40°47' E 024°42'0 0.0
2018-May-31 07:00N 40°47' E 024°42'0 0.0
2018-May-31 06:30N 40°47' E 024°42'0 0.0
2018-May-31 06:00N 40°47' E 024°42'0 0.0
2018-May-30 17:04N 40°47' E 024°42'0 0.0
2018-May-30 17:01N 40°47' E 024°42'0 0.0
2018-May-30 16:30N 40°47' E 024°42'0 0.0
2018-May-30 16:00N 40°47' E 024°42'1 2.5
2018-May-30 15:30N 40°47' E 024°44'3 6.8
2018-May-30 15:00N 40°44' E 024°47'4 6.9
2018-May-30 14:30N 40°41' E 024°48'  

Dump ship's entire track history